sensor_id;sensor_type;location;lat;lon;timestamp;P1;P2;P0
49644;PMS5003;36494;50.730;-1.932;2023-01-08T00:01:28;7;6;
49644;PMS5003;36494;50.730;-1.932;2023-01-08T00:03:54;7;6;
49644;PMS5003;36494;50.730;-1.932;2023-01-08T00:06:19;6;6;
49644;PMS5003;36494;50.730;-1.932;2023-01-08T00:08:44;6;5;
49644;PMS5003;36494;50.730;-1.932;2023-01-08T00:11:10;8;7;
49644;PMS5003;36494;50.730;-1.932;2023-01-08T00:13:35;5;5;
49644;PMS5003;36494;50.730;-1.932;2023-01-08T00:16:02;6;3;
49644;PMS5003;36494;50.730;-1.932;2023-01-08T00:18:27;5;5;
49644;PMS5003;36494;50.730;-1.932;2023-01-08T00:20:52;5;4;
49644;PMS5003;36494;50.730;-1.932;2023-01-08T00:23:18;5;4;
49644;PMS5003;36494;50.730;-1.932;2023-01-08T00:25:43;6;5;
49644;PMS5003;36494;50.730;-1.932;2023-01-08T00:28:08;6;3;
49644;PMS5003;36494;50.730;-1.932;2023-01-08T00:30:34;5;5;
49644;PMS5003;36494;50.730;-1.932;2023-01-08T00:32:59;7;6;
49644;PMS5003;36494;50.730;-1.932;2023-01-08T00:35:24;12;9;
49644;PMS5003;36494;50.730;-1.932;2023-01-08T00:37:49;10;7;
49644;PMS5003;36494;50.730;-1.932;2023-01-08T00:40:15;7;6;
49644;PMS5003;36494;50.730;-1.932;2023-01-08T00:42:40;10;9;
49644;PMS5003;36494;50.730;-1.932;2023-01-08T00:45:06;6;5;
49644;PMS5003;36494;50.730;-1.932;2023-01-08T00:47:31;5;5;
49644;PMS5003;36494;50.730;-1.932;2023-01-08T00:49:56;6;6;
49644;PMS5003;36494;50.730;-1.932;2023-01-08T00:52:21;4;3;
49644;PMS5003;36494;50.730;-1.932;2023-01-08T00:54:47;7;6;
49644;PMS5003;36494;50.730;-1.932;2023-01-08T00:57:12;4;4;
49644;PMS5003;36494;50.730;-1.932;2023-01-08T00:59:37;7;5;
49644;PMS5003;36494;50.730;-1.932;2023-01-08T01:02:03;5;4;
49644;PMS5003;36494;50.730;-1.932;2023-01-08T01:04:28;6;6;
49644;PMS5003;36494;50.730;-1.932;2023-01-08T01:06:54;9;9;
49644;PMS5003;36494;50.730;-1.932;2023-01-08T01:09:19;10;8;
49644;PMS5003;36494;50.730;-1.932;2023-01-08T01:11:45;7;6;
49644;PMS5003;36494;50.730;-1.932;2023-01-08T01:14:11;8;7;
49644;PMS5003;36494;50.730;-1.932;2023-01-08T01:16:36;12;9;
49644;PMS5003;36494;50.730;-1.932;2023-01-08T01:19:01;7;6;
49644;PMS5003;36494;50.730;-1.932;2023-01-08T01:21:27;9;8;
49644;PMS5003;36494;50.730;-1.932;2023-01-08T01:23:53;5;5;
49644;PMS5003;36494;50.730;-1.932;2023-01-08T01:26:18;6;5;
49644;PMS5003;36494;50.730;-1.932;2023-01-08T01:28:45;5;5;
49644;PMS5003;36494;50.730;-1.932;2023-01-08T01:31:10;8;8;
49644;PMS5003;36494;50.730;-1.932;2023-01-08T01:33:35;7;6;
49644;PMS5003;36494;50.730;-1.932;2023-01-08T01:36:01;19;17;
49644;PMS5003;36494;50.730;-1.932;2023-01-08T01:38:27;12;10;
49644;PMS5003;36494;50.730;-1.932;2023-01-08T01:40:52;6;3;
49644;PMS5003;36494;50.730;-1.932;2023-01-08T01:45:43;4;3;
49644;PMS5003;36494;50.730;-1.932;2023-01-08T01:48:09;4;3;
49644;PMS5003;36494;50.730;-1.932;2023-01-08T01:50:34;2;1;
49644;PMS5003;36494;50.730;-1.932;2023-01-08T01:53:00;2;2;
49644;PMS5003;36494;50.730;-1.932;2023-01-08T01:55:24;2;2;
49644;PMS5003;36494;50.730;-1.932;2023-01-08T01:57:50;6;5;
49644;PMS5003;36494;50.730;-1.932;2023-01-08T02:00:15;1;1;
49644;PMS5003;36494;50.730;-1.932;2023-01-08T02:02:40;2;1;
49644;PMS5003;36494;50.730;-1.932;2023-01-08T02:05:06;3;3;
49644;PMS5003;36494;50.730;-1.932;2023-01-08T02:07:33;3;2;
49644;PMS5003;36494;50.730;-1.932;2023-01-08T02:09:58;12;11;
49644;PMS5003;36494;50.730;-1.932;2023-01-08T02:12:24;2;2;
49644;PMS5003;36494;50.730;-1.932;2023-01-08T02:14:52;4;3;
49644;PMS5003;36494;50.730;-1.932;2023-01-08T02:17:14;3;3;
49644;PMS5003;36494;50.730;-1.932;2023-01-08T02:19:40;3;2;
49644;PMS5003;36494;50.730;-1.932;2023-01-08T02:22:06;1;0;
49644;PMS5003;36494;50.730;-1.932;2023-01-08T02:24:32;4;4;
49644;PMS5003;36494;50.730;-1.932;2023-01-08T02:26:54;3;3;
49644;PMS5003;36494;50.730;-1.932;2023-01-08T02:29:20;3;3;
49644;PMS5003;36494;50.730;-1.932;2023-01-08T02:31:45;2;2;
49644;PMS5003;36494;50.730;-1.932;2023-01-08T02:34:10;4;4;
49644;PMS5003;36494;50.730;-1.932;2023-01-08T02:36:36;7;6;
49644;PMS5003;36494;50.730;-1.932;2023-01-08T02:39:08;6;6;
49644;PMS5003;36494;50.730;-1.932;2023-01-08T02:41:27;12;9;
49644;PMS5003;36494;50.730;-1.932;2023-01-08T02:43:51;3;3;
49644;PMS5003;36494;50.730;-1.932;2023-01-08T02:46:18;8;8;
49644;PMS5003;36494;50.730;-1.932;2023-01-08T02:48:43;4;4;
49644;PMS5003;36494;50.730;-1.932;2023-01-08T02:51:08;6;6;
49644;PMS5003;36494;50.730;-1.932;2023-01-08T02:53:33;4;4;
49644;PMS5003;36494;50.730;-1.932;2023-01-08T02:55:59;7;7;
49644;PMS5003;36494;50.730;-1.932;2023-01-08T02:58:23;8;8;
49644;PMS5003;36494;50.730;-1.932;2023-01-08T03:00:48;0;0;
49644;PMS5003;36494;50.730;-1.932;2023-01-08T03:03:15;4;4;
49644;PMS5003;36494;50.730;-1.932;2023-01-08T03:05:40;7;7;
49644;PMS5003;36494;50.730;-1.932;2023-01-08T03:08:04;6;6;
49644;PMS5003;36494;50.730;-1.932;2023-01-08T03:10:30;7;7;
49644;PMS5003;36494;50.730;-1.932;2023-01-08T03:12:56;7;7;
49644;PMS5003;36494;50.730;-1.932;2023-01-08T03:15:23;8;8;
49644;PMS5003;36494;50.730;-1.932;2023-01-08T03:17:47;10;10;
49644;PMS5003;36494;50.730;-1.932;2023-01-08T03:20:12;12;12;
49644;PMS5003;36494;50.730;-1.932;2023-01-08T03:22:38;13;13;
49644;PMS5003;36494;50.730;-1.932;2023-01-08T03:25:03;14;14;
49644;PMS5003;36494;50.730;-1.932;2023-01-08T03:27:28;19;15;
49644;PMS5003;36494;50.730;-1.932;2023-01-08T03:29:53;12;12;
49644;PMS5003;36494;50.730;-1.932;2023-01-08T03:32:18;15;15;
49644;PMS5003;36494;50.730;-1.932;2023-01-08T03:34:44;17;17;
49644;PMS5003;36494;50.730;-1.932;2023-01-08T03:37:09;5;5;
49644;PMS5003;36494;50.730;-1.932;2023-01-08T03:39:36;16;15;
49644;PMS5003;36494;50.730;-1.932;2023-01-08T03:42:01;18;18;
49644;PMS5003;36494;50.730;-1.932;2023-01-08T03:44:25;20;18;
49644;PMS5003;36494;50.730;-1.932;2023-01-08T03:46:51;19;18;
49644;PMS5003;36494;50.730;-1.932;2023-01-08T03:49:16;8;8;
49644;PMS5003;36494;50.730;-1.932;2023-01-08T03:51:42;15;14;
49644;PMS5003;36494;50.730;-1.932;2023-01-08T03:54:07;18;18;
49644;PMS5003;36494;50.730;-1.932;2023-01-08T03:56:32;18;17;
49644;PMS5003;36494;50.730;-1.932;2023-01-08T03:58:58;17;15;
49644;PMS5003;36494;50.730;-1.932;2023-01-08T04:01:23;2;2;
49644;PMS5003;36494;50.730;-1.932;2023-01-08T04:03:49;8;8;
49644;PMS5003;36494;50.730;-1.932;2023-01-08T04:06:14;10;9;
49644;PMS5003;36494;50.730;-1.932;2023-01-08T04:08:39;8;8;
49644;PMS5003;36494;50.730;-1.932;2023-01-08T04:11:05;10;10;
49644;PMS5003;36494;50.730;-1.932;2023-01-08T04:13:30;11;10;
49644;PMS5003;36494;50.730;-1.932;2023-01-08T04:15:55;11;11;
49644;PMS5003;36494;50.730;-1.932;2023-01-08T04:18:20;4;4;
49644;PMS5003;36494;50.730;-1.932;2023-01-08T04:20:46;9;9;
49644;PMS5003;36494;50.730;-1.932;2023-01-08T04:23:11;9;8;
49644;PMS5003;36494;50.730;-1.932;2023-01-08T04:25:37;15;15;
49644;PMS5003;36494;50.730;-1.932;2023-01-08T04:28:02;21;21;
49644;PMS5003;36494;50.730;-1.932;2023-01-08T04:30:28;18;18;
49644;PMS5003;36494;50.730;-1.932;2023-01-08T04:32:53;10;8;
49644;PMS5003;36494;50.730;-1.932;2023-01-08T04:35:18;3;3;
49644;PMS5003;36494;50.730;-1.932;2023-01-08T04:37:43;15;15;
49644;PMS5003;36494;50.730;-1.932;2023-01-08T04:40:09;24;24;
49644;PMS5003;36494;50.730;-1.932;2023-01-08T04:42:34;3;3;
49644;PMS5003;36494;50.730;-1.932;2023-01-08T04:44:59;17;17;
49644;PMS5003;36494;50.730;-1.932;2023-01-08T04:47:25;18;18;
49644;PMS5003;36494;50.730;-1.932;2023-01-08T04:49:50;20;20;
49644;PMS5003;36494;50.730;-1.932;2023-01-08T04:52:16;15;15;
49644;PMS5003;36494;50.730;-1.932;2023-01-08T04:54:41;13;13;
49644;PMS5003;36494;50.730;-1.932;2023-01-08T04:57:06;11;11;
49644;PMS5003;36494;50.730;-1.932;2023-01-08T04:59:31;8;7;
49644;PMS5003;36494;50.730;-1.932;2023-01-08T05:01:57;10;10;
49644;PMS5003;36494;50.730;-1.932;2023-01-08T05:04:22;10;10;
49644;PMS5003;36494;50.730;-1.932;2023-01-08T05:06:48;7;6;
49644;PMS5003;36494;50.730;-1.932;2023-01-08T05:09:13;9;8;
49644;PMS5003;36494;50.730;-1.932;2023-01-08T05:11:39;13;12;
49644;PMS5003;36494;50.730;-1.932;2023-01-08T05:14:04;12;12;
49644;PMS5003;36494;50.730;-1.932;2023-01-08T05:16:30;16;16;
49644;PMS5003;36494;50.730;-1.932;2023-01-08T05:18:55;12;11;
49644;PMS5003;36494;50.730;-1.932;2023-01-08T05:21:20;6;6;
49644;PMS5003;36494;50.730;-1.932;2023-01-08T05:23:46;10;10;
49644;PMS5003;36494;50.730;-1.932;2023-01-08T05:26:11;7;7;
49644;PMS5003;36494;50.730;-1.932;2023-01-08T05:28:36;8;8;
49644;PMS5003;36494;50.730;-1.932;2023-01-08T05:31:02;13;11;
49644;PMS5003;36494;50.730;-1.932;2023-01-08T05:33:27;12;12;
49644;PMS5003;36494;50.730;-1.932;2023-01-08T05:35:52;9;9;
49644;PMS5003;36494;50.730;-1.932;2023-01-08T05:38:18;10;10;
49644;PMS5003;36494;50.730;-1.932;2023-01-08T05:40:43;13;13;
49644;PMS5003;36494;50.730;-1.932;2023-01-08T05:43:08;6;4;
49644;PMS5003;36494;50.730;-1.932;2023-01-08T05:45:34;11;11;
49644;PMS5003;36494;50.730;-1.932;2023-01-08T05:48:03;17;16;
49644;PMS5003;36494;50.730;-1.932;2023-01-08T05:50:25;17;17;
49644;PMS5003;36494;50.730;-1.932;2023-01-08T05:52:50;3;3;
49644;PMS5003;36494;50.730;-1.932;2023-01-08T05:55:15;11;11;
49644;PMS5003;36494;50.730;-1.932;2023-01-08T05:57:41;17;16;
49644;PMS5003;36494;50.730;-1.932;2023-01-08T06:00:07;4;4;
49644;PMS5003;36494;50.730;-1.932;2023-01-08T06:02:32;7;7;
49644;PMS5003;36494;50.730;-1.932;2023-01-08T06:04:57;10;10;
49644;PMS5003;36494;50.730;-1.932;2023-01-08T06:07:23;10;10;
49644;PMS5003;36494;50.730;-1.932;2023-01-08T06:09:48;7;7;
49644;PMS5003;36494;50.730;-1.932;2023-01-08T06:12:14;6;5;
49644;PMS5003;36494;50.730;-1.932;2023-01-08T06:14:39;8;8;
49644;PMS5003;36494;50.730;-1.932;2023-01-08T06:17:04;11;10;
49644;PMS5003;36494;50.730;-1.932;2023-01-08T06:19:30;6;6;
49644;PMS5003;36494;50.730;-1.932;2023-01-08T06:21:55;7;6;
49644;PMS5003;36494;50.730;-1.932;2023-01-08T06:24:20;3;3;
49644;PMS5003;36494;50.730;-1.932;2023-01-08T06:26:46;2;2;
49644;PMS5003;36494;50.730;-1.932;2023-01-08T06:29:11;4;3;
49644;PMS5003;36494;50.730;-1.932;2023-01-08T06:31:36;2;2;
49644;PMS5003;36494;50.730;-1.932;2023-01-08T06:34:01;2;2;
49644;PMS5003;36494;50.730;-1.932;2023-01-08T06:36:27;5;5;
49644;PMS5003;36494;50.730;-1.932;2023-01-08T06:38:52;3;3;
49644;PMS5003;36494;50.730;-1.932;2023-01-08T06:41:17;4;4;
49644;PMS5003;36494;50.730;-1.932;2023-01-08T06:43:43;5;3;
49644;PMS5003;36494;50.730;-1.932;2023-01-08T06:46:08;3;3;
49644;PMS5003;36494;50.730;-1.932;2023-01-08T06:48:33;3;3;
49644;PMS5003;36494;50.730;-1.932;2023-01-08T06:50:59;6;5;
49644;PMS5003;36494;50.730;-1.932;2023-01-08T06:53:24;6;6;
49644;PMS5003;36494;50.730;-1.932;2023-01-08T06:55:50;4;4;
49644;PMS5003;36494;50.730;-1.932;2023-01-08T06:58:15;5;5;
49644;PMS5003;36494;50.730;-1.932;2023-01-08T07:00:40;3;3;
49644;PMS5003;36494;50.730;-1.932;2023-01-08T07:03:06;5;5;
49644;PMS5003;36494;50.730;-1.932;2023-01-08T07:05:31;5;3;
49644;PMS5003;36494;50.730;-1.932;2023-01-08T07:07:56;5;4;
49644;PMS5003;36494;50.730;-1.932;2023-01-08T07:10:22;5;3;
49644;PMS5003;36494;50.730;-1.932;2023-01-08T07:12:47;5;4;
49644;PMS5003;36494;50.730;-1.932;2023-01-08T07:15:13;3;3;
49644;PMS5003;36494;50.730;-1.932;2023-01-08T07:17:38;4;4;
49644;PMS5003;36494;50.730;-1.932;2023-01-08T07:20:04;5;4;
49644;PMS5003;36494;50.730;-1.932;2023-01-08T07:22:29;7;6;
49644;PMS5003;36494;50.730;-1.932;2023-01-08T07:24:54;5;4;
49644;PMS5003;36494;50.730;-1.932;2023-01-08T07:27:19;4;4;
49644;PMS5003;36494;50.730;-1.932;2023-01-08T07:29:44;5;5;
49644;PMS5003;36494;50.730;-1.932;2023-01-08T07:32:10;7;4;
49644;PMS5003;36494;50.730;-1.932;2023-01-08T07:34:35;3;3;
49644;PMS5003;36494;50.730;-1.932;2023-01-08T07:37:01;4;3;
49644;PMS5003;36494;50.730;-1.932;2023-01-08T07:39:26;3;3;
49644;PMS5003;36494;50.730;-1.932;2023-01-08T07:41:52;6;6;
49644;PMS5003;36494;50.730;-1.932;2023-01-08T07:44:17;6;5;
49644;PMS5003;36494;50.730;-1.932;2023-01-08T07:46:42;5;5;
49644;PMS5003;36494;50.730;-1.932;2023-01-08T07:49:07;9;7;
49644;PMS5003;36494;50.730;-1.932;2023-01-08T07:51:32;3;2;
49644;PMS5003;36494;50.730;-1.932;2023-01-08T07:53:58;2;2;
49644;PMS5003;36494;50.730;-1.932;2023-01-08T07:56:24;2;1;
49644;PMS5003;36494;50.730;-1.932;2023-01-08T07:58:50;3;2;
49644;PMS5003;36494;50.730;-1.932;2023-01-08T08:01:15;3;3;
49644;PMS5003;36494;50.730;-1.932;2023-01-08T08:03:40;1;1;
49644;PMS5003;36494;50.730;-1.932;2023-01-08T08:06:06;3;3;
49644;PMS5003;36494;50.730;-1.932;2023-01-08T08:08:31;4;4;
49644;PMS5003;36494;50.730;-1.932;2023-01-08T08:10:56;2;2;
49644;PMS5003;36494;50.730;-1.932;2023-01-08T08:13:21;2;2;
49644;PMS5003;36494;50.730;-1.932;2023-01-08T08:15:46;2;1;
49644;PMS5003;36494;50.730;-1.932;2023-01-08T08:18:12;3;3;
49644;PMS5003;36494;50.730;-1.932;2023-01-08T08:20:37;4;2;
49644;PMS5003;36494;50.730;-1.932;2023-01-08T08:23:03;6;4;
49644;PMS5003;36494;50.730;-1.932;2023-01-08T08:25:28;2;1;
49644;PMS5003;36494;50.730;-1.932;2023-01-08T08:27:54;2;1;
49644;PMS5003;36494;50.730;-1.932;2023-01-08T08:30:18;6;6;
49644;PMS5003;36494;50.730;-1.932;2023-01-08T08:32:43;3;3;
49644;PMS5003;36494;50.730;-1.932;2023-01-08T08:35:09;8;5;
49644;PMS5003;36494;50.730;-1.932;2023-01-08T08:37:34;3;3;
49644;PMS5003;36494;50.730;-1.932;2023-01-08T08:39:59;4;3;
49644;PMS5003;36494;50.730;-1.932;2023-01-08T08:42:24;5;4;
49644;PMS5003;36494;50.730;-1.932;2023-01-08T08:44:50;4;4;
49644;PMS5003;36494;50.730;-1.932;2023-01-08T08:47:15;8;7;
49644;PMS5003;36494;50.730;-1.932;2023-01-08T08:49:41;5;4;
49644;PMS5003;36494;50.730;-1.932;2023-01-08T08:52:06;7;6;
49644;PMS5003;36494;50.730;-1.932;2023-01-08T08:54:32;6;5;
49644;PMS5003;36494;50.730;-1.932;2023-01-08T08:56:57;4;3;
49644;PMS5003;36494;50.730;-1.932;2023-01-08T08:59:22;3;3;
49644;PMS5003;36494;50.730;-1.932;2023-01-08T09:01:47;7;6;
49644;PMS5003;36494;50.730;-1.932;2023-01-08T09:04:12;6;6;
49644;PMS5003;36494;50.730;-1.932;2023-01-08T09:06:38;5;5;
49644;PMS5003;36494;50.730;-1.932;2023-01-08T09:09:03;5;4;
49644;PMS5003;36494;50.730;-1.932;2023-01-08T09:11:29;8;8;
49644;PMS5003;36494;50.730;-1.932;2023-01-08T09:13:54;9;7;
49644;PMS5003;36494;50.730;-1.932;2023-01-08T09:16:19;7;7;
49644;PMS5003;36494;50.730;-1.932;2023-01-08T09:18:44;4;3;
49644;PMS5003;36494;50.730;-1.932;2023-01-08T09:21:09;5;5;
49644;PMS5003;36494;50.730;-1.932;2023-01-08T09:23:35;1;1;
49644;PMS5003;36494;50.730;-1.932;2023-01-08T09:26:00;3;3;
49644;PMS5003;36494;50.730;-1.932;2023-01-08T09:28:25;0;0;
49644;PMS5003;36494;50.730;-1.932;2023-01-08T09:30:50;1;1;
49644;PMS5003;36494;50.730;-1.932;2023-01-08T09:33:16;2;1;
49644;PMS5003;36494;50.730;-1.932;2023-01-08T09:35:42;1;1;
49644;PMS5003;36494;50.730;-1.932;2023-01-08T09:38:07;1;1;
49644;PMS5003;36494;50.730;-1.932;2023-01-08T09:40:33;2;2;
49644;PMS5003;36494;50.730;-1.932;2023-01-08T09:42:57;7;7;
49644;PMS5003;36494;50.730;-1.932;2023-01-08T09:45:24;1;1;
49644;PMS5003;36494;50.730;-1.932;2023-01-08T09:47:48;3;3;
49644;PMS5003;36494;50.730;-1.932;2023-01-08T09:50:13;3;3;
49644;PMS5003;36494;50.730;-1.932;2023-01-08T09:52:38;2;2;
49644;PMS5003;36494;50.730;-1.932;2023-01-08T09:55:08;2;2;
49644;PMS5003;36494;50.730;-1.932;2023-01-08T09:57:30;4;3;
49644;PMS5003;36494;50.730;-1.932;2023-01-08T09:59:55;2;2;
49644;PMS5003;36494;50.730;-1.932;2023-01-08T10:02:21;3;2;
49644;PMS5003;36494;50.730;-1.932;2023-01-08T10:04:47;3;2;
49644;PMS5003;36494;50.730;-1.932;2023-01-08T10:07:14;2;2;
49644;PMS5003;36494;50.730;-1.932;2023-01-08T10:09:38;2;2;
49644;PMS5003;36494;50.730;-1.932;2023-01-08T10:12:03;1;1;
49644;PMS5003;36494;50.730;-1.932;2023-01-08T10:14:30;4;4;
49644;PMS5003;36494;50.730;-1.932;2023-01-08T10:16:56;3;2;
49644;PMS5003;36494;50.730;-1.932;2023-01-08T10:19:20;3;1;
49644;PMS5003;36494;50.730;-1.932;2023-01-08T10:21:45;1;0;
49644;PMS5003;36494;50.730;-1.932;2023-01-08T10:24:11;1;1;
49644;PMS5003;36494;50.730;-1.932;2023-01-08T10:26:36;3;3;
49644;PMS5003;36494;50.730;-1.932;2023-01-08T10:29:06;0;0;
49644;PMS5003;36494;50.730;-1.932;2023-01-08T10:31:27;2;2;
49644;PMS5003;36494;50.730;-1.932;2023-01-08T10:33:53;2;2;
49644;PMS5003;36494;50.730;-1.932;2023-01-08T10:36:21;3;2;
49644;PMS5003;36494;50.730;-1.932;2023-01-08T10:38:47;4;2;
49644;PMS5003;36494;50.730;-1.932;2023-01-08T10:41:10;1;1;
49644;PMS5003;36494;50.730;-1.932;2023-01-08T10:43:36;4;3;
49644;PMS5003;36494;50.730;-1.932;2023-01-08T10:46:01;4;2;
49644;PMS5003;36494;50.730;-1.932;2023-01-08T10:48:29;2;2;
49644;PMS5003;36494;50.730;-1.932;2023-01-08T10:50:51;2;2;
49644;PMS5003;36494;50.730;-1.932;2023-01-08T10:53:20;4;3;
49644;PMS5003;36494;50.730;-1.932;2023-01-08T10:55:42;5;4;
49644;PMS5003;36494;50.730;-1.932;2023-01-08T10:58:12;6;5;
49644;PMS5003;36494;50.730;-1.932;2023-01-08T11:00:33;6;5;
49644;PMS5003;36494;50.730;-1.932;2023-01-08T11:02:58;9;6;
49644;PMS5003;36494;50.730;-1.932;2023-01-08T11:05:29;3;3;
49644;PMS5003;36494;50.730;-1.932;2023-01-08T11:07:49;6;5;
49644;PMS5003;36494;50.730;-1.932;2023-01-08T11:10:20;2;2;
49644;PMS5003;36494;50.730;-1.932;2023-01-08T11:12:40;5;4;
49644;PMS5003;36494;50.730;-1.932;2023-01-08T11:15:06;2;2;
49644;PMS5003;36494;50.730;-1.932;2023-01-08T11:17:31;3;3;
49644;PMS5003;36494;50.730;-1.932;2023-01-08T11:22:23;7;7;
49644;PMS5003;36494;50.730;-1.932;2023-01-08T11:24:47;6;5;
49644;PMS5003;36494;50.730;-1.932;2023-01-08T11:27:14;5;5;
49644;PMS5003;36494;50.730;-1.932;2023-01-08T11:29:40;4;3;
49644;PMS5003;36494;50.730;-1.932;2023-01-08T11:32:08;3;3;
49644;PMS5003;36494;50.730;-1.932;2023-01-08T11:34:30;3;3;
49644;PMS5003;36494;50.730;-1.932;2023-01-08T11:36:58;6;5;
49644;PMS5003;36494;50.730;-1.932;2023-01-08T11:39:21;4;2;
49644;PMS5003;36494;50.730;-1.932;2023-01-08T11:41:52;8;6;
49644;PMS5003;36494;50.730;-1.932;2023-01-08T11:44:16;5;5;
49644;PMS5003;36494;50.730;-1.932;2023-01-08T11:46:40;5;4;
49644;PMS5003;36494;50.730;-1.932;2023-01-08T11:49:09;7;6;
49644;PMS5003;36494;50.730;-1.932;2023-01-08T11:51:34;5;3;
49644;PMS5003;36494;50.730;-1.932;2023-01-08T11:53:56;6;5;
49644;PMS5003;36494;50.730;-1.932;2023-01-08T11:56:25;6;6;
49644;PMS5003;36494;50.730;-1.932;2023-01-08T11:58:50;7;6;
49644;PMS5003;36494;50.730;-1.932;2023-01-08T12:01:16;5;4;
49644;PMS5003;36494;50.730;-1.932;2023-01-08T12:03:39;3;3;
49644;PMS5003;36494;50.730;-1.932;2023-01-08T12:06:04;5;4;
49644;PMS5003;36494;50.730;-1.932;2023-01-08T12:08:28;5;3;
49644;PMS5003;36494;50.730;-1.932;2023-01-08T12:10:56;7;6;
49644;PMS5003;36494;50.730;-1.932;2023-01-08T12:13:24;2;2;
49644;PMS5003;36494;50.730;-1.932;2023-01-08T12:15:47;4;2;
49644;PMS5003;36494;50.730;-1.932;2023-01-08T12:18:16;6;4;
49644;PMS5003;36494;50.730;-1.932;2023-01-08T12:20:36;9;6;
49644;PMS5003;36494;50.730;-1.932;2023-01-08T12:23:03;4;4;
49644;PMS5003;36494;50.730;-1.932;2023-01-08T12:25:33;7;6;
49644;PMS5003;36494;50.730;-1.932;2023-01-08T12:27:57;4;4;
49644;PMS5003;36494;50.730;-1.932;2023-01-08T12:30:20;4;4;
49644;PMS5003;36494;50.730;-1.932;2023-01-08T12:32:44;4;3;
49644;PMS5003;36494;50.730;-1.932;2023-01-08T12:35:09;4;4;
49644;PMS5003;36494;50.730;-1.932;2023-01-08T12:37:34;2;2;
49644;PMS5003;36494;50.730;-1.932;2023-01-08T12:40:00;3;1;
49644;PMS5003;36494;50.730;-1.932;2023-01-08T12:42:24;2;2;
49644;PMS5003;36494;50.730;-1.932;2023-01-08T12:44:50;3;2;
49644;PMS5003;36494;50.730;-1.932;2023-01-08T12:47:15;3;3;
49644;PMS5003;36494;50.730;-1.932;2023-01-08T12:49:41;1;1;
49644;PMS5003;36494;50.730;-1.932;2023-01-08T12:52:06;3;2;
49644;PMS5003;36494;50.730;-1.932;2023-01-08T12:54:31;2;2;
49644;PMS5003;36494;50.730;-1.932;2023-01-08T12:56:59;2;1;
49644;PMS5003;36494;50.730;-1.932;2023-01-08T12:59:23;1;0;
49644;PMS5003;36494;50.730;-1.932;2023-01-08T13:01:48;4;4;
49644;PMS5003;36494;50.730;-1.932;2023-01-08T13:04:12;4;2;
49644;PMS5003;36494;50.730;-1.932;2023-01-08T13:06:37;3;1;
49644;PMS5003;36494;50.730;-1.932;2023-01-08T13:09:03;2;2;
49644;PMS5003;36494;50.730;-1.932;2023-01-08T13:11:29;1;1;
49644;PMS5003;36494;50.730;-1.932;2023-01-08T13:13:58;2;1;
49644;PMS5003;36494;50.730;-1.932;2023-01-08T13:16:19;4;3;
49644;PMS5003;36494;50.730;-1.932;2023-01-08T13:18:50;5;3;
49644;PMS5003;36494;50.730;-1.932;2023-01-08T13:21:10;2;1;
49644;PMS5003;36494;50.730;-1.932;2023-01-08T13:23:35;4;4;
49644;PMS5003;36494;50.730;-1.932;2023-01-08T13:26:02;0;0;
49644;PMS5003;36494;50.730;-1.932;2023-01-08T13:28:27;1;1;
49644;PMS5003;36494;50.730;-1.932;2023-01-08T13:30:52;2;2;
49644;PMS5003;36494;50.730;-1.932;2023-01-08T13:33:24;1;1;
49644;PMS5003;36494;50.730;-1.932;2023-01-08T13:35:43;2;1;
49644;PMS5003;36494;50.730;-1.932;2023-01-08T13:38:13;3;3;
49644;PMS5003;36494;50.730;-1.932;2023-01-08T13:40:34;2;2;
49644;PMS5003;36494;50.730;-1.932;2023-01-08T13:42:59;1;1;
49644;PMS5003;36494;50.730;-1.932;2023-01-08T13:45:24;2;2;
49644;PMS5003;36494;50.730;-1.932;2023-01-08T13:47:50;4;2;
49644;PMS5003;36494;50.730;-1.932;2023-01-08T13:50:16;1;1;
49644;PMS5003;36494;50.730;-1.932;2023-01-08T13:52:41;1;1;
49644;PMS5003;36494;50.730;-1.932;2023-01-08T13:55:11;4;4;
49644;PMS5003;36494;50.730;-1.932;2023-01-08T13:57:35;2;1;
49644;PMS5003;36494;50.730;-1.932;2023-01-08T13:59:57;1;1;
49644;PMS5003;36494;50.730;-1.932;2023-01-08T14:02:24;2;1;
49644;PMS5003;36494;50.730;-1.932;2023-01-08T14:04:48;2;2;
49644;PMS5003;36494;50.730;-1.932;2023-01-08T14:07:13;5;5;
49644;PMS5003;36494;50.730;-1.932;2023-01-08T14:09:38;4;3;
49644;PMS5003;36494;50.730;-1.932;2023-01-08T14:12:04;5;5;
49644;PMS5003;36494;50.730;-1.932;2023-01-08T14:14:29;3;3;
49644;PMS5003;36494;50.730;-1.932;2023-01-08T14:16:55;7;6;
49644;PMS5003;36494;50.730;-1.932;2023-01-08T14:19:21;4;4;
49644;PMS5003;36494;50.730;-1.932;2023-01-08T14:21:46;5;5;
49644;PMS5003;36494;50.730;-1.932;2023-01-08T14:24:11;3;2;
49644;PMS5003;36494;50.730;-1.932;2023-01-08T14:26:36;3;3;
49644;PMS5003;36494;50.730;-1.932;2023-01-08T14:29:02;6;4;
49644;PMS5003;36494;50.730;-1.932;2023-01-08T14:31:27;3;3;
49644;PMS5003;36494;50.730;-1.932;2023-01-08T14:33:53;5;4;
49644;PMS5003;36494;50.730;-1.932;2023-01-08T14:36:18;3;2;
49644;PMS5003;36494;50.730;-1.932;2023-01-08T14:38:43;4;4;
49644;PMS5003;36494;50.730;-1.932;2023-01-08T14:41:09;2;2;
49644;PMS5003;36494;50.730;-1.932;2023-01-08T14:43:44;3;3;
49644;PMS5003;36494;50.730;-1.932;2023-01-08T14:45:59;2;2;
49644;PMS5003;36494;50.730;-1.932;2023-01-08T14:48:27;0;0;
49644;PMS5003;36494;50.730;-1.932;2023-01-08T14:50:55;0;0;
49644;PMS5003;36494;50.730;-1.932;2023-01-08T14:53:18;1;1;
49644;PMS5003;36494;50.730;-1.932;2023-01-08T14:55:41;1;1;
49644;PMS5003;36494;50.730;-1.932;2023-01-08T14:58:07;2;1;
49644;PMS5003;36494;50.730;-1.932;2023-01-08T15:00:31;0;0;
49644;PMS5003;36494;50.730;-1.932;2023-01-08T15:02:56;2;2;
49644;PMS5003;36494;50.730;-1.932;2023-01-08T15:05:24;2;2;
49644;PMS5003;36494;50.730;-1.932;2023-01-08T15:07:54;2;2;
49644;PMS5003;36494;50.730;-1.932;2023-01-08T15:10:22;3;2;
49644;PMS5003;36494;50.730;-1.932;2023-01-08T15:12:38;2;2;
49644;PMS5003;36494;50.730;-1.932;2023-01-08T15:15:09;3;3;
49644;PMS5003;36494;50.730;-1.932;2023-01-08T15:17:29;3;3;
49644;PMS5003;36494;50.730;-1.932;2023-01-08T15:19:55;6;6;
49644;PMS5003;36494;50.730;-1.932;2023-01-08T15:22:20;2;2;
49644;PMS5003;36494;50.730;-1.932;2023-01-08T15:24:49;4;3;
49644;PMS5003;36494;50.730;-1.932;2023-01-08T15:27:14;4;4;
49644;PMS5003;36494;50.730;-1.932;2023-01-08T15:29:36;2;2;
49644;PMS5003;36494;50.730;-1.932;2023-01-08T15:34:26;4;4;
49644;PMS5003;36494;50.730;-1.932;2023-01-08T15:36:51;7;5;
49644;PMS5003;36494;50.730;-1.932;2023-01-08T15:39:16;6;5;
49644;PMS5003;36494;50.730;-1.932;2023-01-08T15:41:42;11;11;
49644;PMS5003;36494;50.730;-1.932;2023-01-08T15:44:08;12;12;
49644;PMS5003;36494;50.730;-1.932;2023-01-08T15:46:33;3;3;
49644;PMS5003;36494;50.730;-1.932;2023-01-08T15:48:58;2;2;
49644;PMS5003;36494;50.730;-1.932;2023-01-08T15:51:23;4;4;
49644;PMS5003;36494;50.730;-1.932;2023-01-08T15:53:49;4;4;
49644;PMS5003;36494;50.730;-1.932;2023-01-08T15:56:14;3;3;
49644;PMS5003;36494;50.730;-1.932;2023-01-08T15:58:39;3;3;
49644;PMS5003;36494;50.730;-1.932;2023-01-08T16:01:05;5;5;
49644;PMS5003;36494;50.730;-1.932;2023-01-08T16:03:30;6;6;
49644;PMS5003;36494;50.730;-1.932;2023-01-08T16:05:56;7;7;
49644;PMS5003;36494;50.730;-1.932;2023-01-08T16:08:21;2;2;
49644;PMS5003;36494;50.730;-1.932;2023-01-08T16:13:12;7;7;
49644;PMS5003;36494;50.730;-1.932;2023-01-08T16:15:38;8;8;
49644;PMS5003;36494;50.730;-1.932;2023-01-08T16:18:03;8;8;
49644;PMS5003;36494;50.730;-1.932;2023-01-08T16:20:28;7;7;
49644;PMS5003;36494;50.730;-1.932;2023-01-08T16:22:54;13;12;
49644;PMS5003;36494;50.730;-1.932;2023-01-08T16:25:19;6;4;